FW0067 Weather Reports


time (UTC)temp
F
wind
direction
speed
knots
gust
knots
rain 1hr
in
rain 24hr
in
rain mn
in
humidity
%
barometer
mb
20240614122206 48 110 0.0 5.2 0.00 0.01 0.00 91 1024.2
20240614121705 48 107 0.0 4.3 0.00 0.01 0.00 91 1024.1
20240614121205 47 105 0.9 10.4 0.00 0.01 0.00 91 1024.1
20240614120705 47 96 2.6 10.4 0.00 0.01 0.00 91 1024.1
20240614120205 47 104 0.0 2.6 0.00 0.01 0.00 91 1024.2
20240614115205 47 103 0.0 2.6 0.00 0.01 0.00 90 1024.2
20240614114205 47 103 0.0 2.6 0.00 0.01 0.00 90 1024.2
20240614113705 47 103 0.0 1.7 0.00 0.01 0.00 90 1024.2
20240614113205 47 103 0.0 1.7 0.00 0.01 0.00 90 1024.2
20240614112705 47 103 0.0 1.7 0.00 0.01 0.00 90 1024.3
20240614112205 47 103 0.0 1.7 0.00 0.01 0.00 90 1024.2
20240614111705 47 103 0.0 1.7 0.00 0.01 0.00 90 1024.3
20240614110705 47 102 0.9 1.7 0.00 0.01 0.00 90 1024.3
20240614105205 47 102 0.0 2.6 0.00 0.01 0.00 89 1024.4
20240614104705 47 102 0.9 2.6 0.00 0.01 0.00 89 1024.4
20240614104205 47 99 0.0 0.9 0.00 0.01 0.00 89 1024.4
20240614103705 47 99 0.0 2.6 0.00 0.01 0.00 89 1024.4
20240614103205 47 99 0.0 2.6 0.00 0.01 0.00 88 1024.5
20240614102205 47 98 0.0 0.0 0.00 0.01 0.00 88 1024.6
20240614100705 47 98 0.0 0.0 0.00 0.01 0.00 87 1024.7
20240614100204 47 98 0.0 0.0 0.00 0.01 0.00 87 1024.8
20240614095705 47 98 0.0 0.0 0.00 0.01 0.00 87 1024.8
20240614094705 47 98 0.0 0.0 0.00 0.01 0.00 87 1024.9
20240614094205 47 98 0.0 0.0 0.00 0.01 0.00 87 1024.8
20240614093705 47 98 0.0 0.0 0.00 0.01 0.00 86 1024.9
20240614093205 47 98 0.0 0.0 0.00 0.01 0.00 86 1024.9
20240614092705 47 98 0.0 0.0 0.00 0.01 0.00 86 1025.0
20240614092205 47 98 0.0 0.0 0.00 0.01 0.00 86 1025.0
20240614091706 48 98 0.0 1.7 0.00 0.01 0.00 86 1025.0
20240614091204 48 98 0.0 1.7 0.00 0.01 0.00 86 1024.9
20240614090704 48 98 0.0 1.7 0.00 0.01 0.00 85 1024.9
20240614090205 48 98 0.0 0.0 0.00 0.01 0.00 85 1024.7
20240614085705 48 98 0.0 0.0 0.00 0.01 0.00 84 1024.7
20240614084705 48 98 0.0 0.0 0.00 0.01 0.00 84 1024.7
20240614084205 48 98 0.0 0.0 0.00 0.01 0.00 84 1024.6
20240614083205 48 98 0.0 0.0 0.00 0.01 0.00 84 1024.6
20240614082705 49 98 0.0 0.0 0.00 0.01 0.00 84 1024.6
20240614081705 49 98 0.0 0.0 0.00 0.01 0.00 83 1024.7
20240614080705 49 98 0.0 0.0 0.00 0.01 0.00 83 1024.7
20240614080205 49 98 0.0 0.0 0.00 0.01 0.00 82 1024.7
20240614075705 49 98 0.0 0.0 0.00 0.01 0.00 82 1024.6
20240614075205 49 98 0.0 0.9 0.00 0.01 0.00 82 1024.6
20240614074704 49 98 0.0 2.6 0.00 0.01 0.00 81 1024.5
20240614074205 49 98 0.0 2.6 0.00 0.01 0.00 81 1024.5
20240614073705 50 98 0.0 2.6 0.00 0.01 0.00 81 1024.6
20240614073205 50 98 0.0 0.0 0.00 0.01 0.00 80 1024.5
20240614072705 50 98 0.0 0.9 0.00 0.01 0.00 80 1024.6
20240614072205 50 98 0.0 2.6 0.00 0.01 0.00 80 1024.6
20240614071705 50 98 0.9 2.6 0.00 0.01 0.00 79 1024.5
20240614071204 50 98 0.0 1.7 0.00 0.01 0.00 79 1024.4
20240614070205 50 98 0.0 0.0 0.00 0.01 0.00 78 1024.3
20240614065705 50 98 0.0 0.0 0.00 0.01 0.00 78 1024.3
20240614065205 51 98 0.0 0.0 0.00 0.01 0.00 78 1024.3
20240614064205 51 98 0.0 0.0 0.00 0.01 0.00 78 1024.2
20240614063705 51 98 0.0 0.0 0.00 0.01 0.00 78 1024.2
20240614063205 51 98 0.0 0.0 0.00 0.01 0.00 78 1024.1
20240614062704 51 98 0.0 0.0 0.00 0.01 0.00 78 1024.1
20240614062204 51 98 0.0 0.0 0.00 0.01 0.00 77 1024.1
20240614061705 51 98 0.0 0.0 0.00 0.01 0.00 78 1024.0
20240614061205 51 98 0.0 0.0 0.00 0.01 0.00 78 1024.0
20240614060705 51 98 0.0 0.0 0.00 0.01 0.00 77 1024.0
20240614060204 51 98 0.0 0.9 0.00 0.01 0.00 77 1024.0
20240614055705 51 98 0.0 0.9 0.00 0.01 0.00 76 1024.0
20240614055206 51 98 0.0 0.9 0.00 0.01 0.00 76 1024.0
20240614054704 51 98 0.0 0.9 0.00 0.01 0.00 76 1023.9
20240614054206 51 98 0.0 0.9 0.00 0.01 0.00 77 1023.8
20240614053205 51 98 0.0 1.7 0.00 0.01 0.00 76 1023.8
20240614052705 51 98 0.9 2.6 0.00 0.01 0.00 77 1023.7
20240614052205 51 98 0.0 2.6 0.00 0.01 0.00 76 1023.6
20240614051704 51 98 0.9 2.6 0.00 0.01 0.00 76 1023.6
20240614050705 51 101 0.9 4.3 0.00 0.01 0.00 76 1023.7
20240614050205 51 101 1.7 4.3 0.00 0.01 0.00 76 1023.7
20240614045705 51 102 1.7 4.3 0.00 0.01 0.00 76 1023.7
20240614045205 51 103 0.9 2.6 0.00 0.01 0.00 76 1023.7
20240614044705 51 103 0.0 1.7 0.00 0.01 0.00 76 1023.8
20240614043705 51 103 0.0 1.7 0.00 0.01 0.00 76 1023.7
20240614043205 51 103 0.0 2.6 0.00 0.01 0.00 76 1023.7
20240614042205 51 103 0.0 2.6 0.00 0.01 0.00 75 1023.8
20240614041704 51 103 0.9 2.6 0.00 0.01 0.00 76 1023.9
20240614040704 51 102 0.0 2.6 0.00 0.01 0.00 76 1024.1
20240614035704 51 103 0.0 1.7 0.00 0.01 0.00 75 1024.1
20240614035205 51 103 0.0 0.9 0.00 0.01 0.00 76 1024.2
20240614034705 51 103 0.0 4.3 0.00 0.01 0.00 76 1024.2
20240614033705 51 103 0.9 2.6 0.00 0.01 0.00 76 1024.3
20240614033204 51 103 0.0 2.6 0.00 0.01 0.00 77 1024.4
20240614032705 51 102 0.9 2.6 0.00 0.01 0.00 77 1024.4
20240614031704 51 103 0.0 2.6 0.00 0.01 0.00 76 1024.4
20240614031204 51 103 0.0 5.2 0.00 0.01 0.00 76 1024.4
20240614030705 51 103 0.9 5.2 0.00 0.01 0.00 76 1024.4
20240614030205 51 103 0.0 4.3 0.00 0.01 0.00 76 1024.5
20240614025704 51 98 0.0 4.3 0.00 0.01 0.00 76 1024.5
20240614025204 51 98 0.9 5.2 0.00 0.01 0.00 77 1024.6
20240614024704 51 96 1.7 5.2 0.00 0.01 0.00 77 1024.7
20240614022205 50 93 0.0 2.6 0.00 0.01 0.00 78 1025.0
20240614021705 50 93 0.0 2.6 0.00 0.01 0.00 77 1025.1
20240614021204 50 94 0.0 2.6 0.00 0.01 0.00 77 1025.1
20240614020705 51 93 0.9 2.6 0.00 0.01 0.00 77 1025.1
20240614015705 51 93 0.9 8.7 0.00 0.01 0.00 76 1025.1
20240614015205 51 90 1.7 8.7 0.00 0.01 0.00 76 1025.3
20240614014204 51 95 0.9 6.1 0.00 0.01 0.00 77 1025.6
20240614013704 51 91 1.7 6.1 0.00 0.01 0.00 76 1025.6
20240614013204 51 90 1.7 5.2 0.00 0.01 0.00 77 1025.6
20240614012204 51 87 1.7 6.1 0.00 0.01 0.00 77 1025.7
20240614011705 51 91 0.0 6.1 0.00 0.01 0.00 79 1025.8
20240614011204 51 104 2.6 6.1 0.00 0.01 0.00 80 1025.8
20240614010704 50 127 1.7 5.2 0.00 0.01 0.00 82 1025.8
20240614010205 50 150 0.0 5.2 0.00 0.01 0.00 84 1025.9
20240614005705 49 112 0.0 6.1 0.00 0.01 0.00 85 1026.0
20240614005205 49 110 0.9 6.1 0.00 0.01 0.00 87 1026.0
20240614004705 48 118 1.7 6.1 0.00 0.01 0.00 89 1026.0
20240614004205 48 206 0.0 6.1 0.00 0.01 0.00 90 1026.0
20240614003204 47 224 0.9 5.2 0.00 0.01 0.00 92 1026.3
20240614002704 47 232 0.9 4.3 0.00 0.01 0.00 93 1026.4
20240614002204 46 235 0.9 4.3 0.00 0.01 0.00 94 1026.4
20240614001705 46 238 0.9 2.6 0.00 0.01 0.00 94 1026.4
20240614001204 46 240 0.9 2.6 0.00 0.01 0.00 95 1026.4
20240614000705 45 240 0.0 4.3 0.00 0.01 0.00 96 1026.5
20240614000205 45 240 0.9 4.3 0.00 0.01 0.00 96 1026.5
20240613235205 44 248 0.9 2.6 0.00 0.01 0.00 97 1026.8
20240613234705 44 251 0.9 2.6 0.00 0.01 0.00 97 1026.8
20240613233705 43 254 0.0 2.6 0.00 0.01 0.00 97 1026.7
20240613233205 43 254 0.0 2.6 0.00 0.01 0.00 97 1026.7
20240613232705 42 254 0.9 2.6 0.00 0.01 0.00 97 1026.7
20240613232204 42 254 0.0 2.6 0.00 0.01 0.00 97 1026.7
20240613231704 42 254 0.9 2.6 0.00 0.01 0.00 97 1026.8
20240613231204 42 254 1.7 2.6 0.00 0.01 0.00 97 1026.8
20240613230704 41 255 0.9 2.6 0.00 0.01 0.00 97 1026.8
20240613230204 41 255 0.9 2.6 0.00 0.01 0.00 97 1026.7
20240613225705 40 257 1.7 2.6 0.00 0.01 0.01 97 1026.6
20240613224705 38 257 0.9 1.7 0.00 0.01 0.01 97 1026.6
20240613224204 37 257 0.0 0.0 0.00 0.01 0.01 96 1026.7
20240613223704 37 257 0.0 0.0 0.00 0.01 0.01 96 1026.7
20240613223204 37 257 0.0 0.9 0.00 0.01 0.01 96 1026.7
20240613222704 37 257 0.0 0.9 0.00 0.01 0.01 96 1026.6
20240613222205 36 257 0.0 1.7 0.00 0.01 0.01 96 1026.7
20240613221205 36 257 0.9 1.7 0.00 0.01 0.01 96 1026.7
20240613220704 36 257 0.0 0.0 0.00 0.01 0.01 96 1026.7
20240613220205 36 257 0.0 0.9 0.00 0.01 0.01 96 1026.8
20240613215205 35 257 0.0 0.9 0.00 0.01 0.01 96 1026.7
20240613214205 35 257 0.0 0.0 0.00 0.01 0.01 96 1026.8
20240613213204 35 257 0.0 0.0 0.00 0.01 0.01 96 1026.7
20240613212704 35 257 0.0 0.0 0.00 0.01 0.01 96 1026.6
20240613212204 35 257 0.0 0.0 0.00 0.01 0.01 96 1026.6
20240613211705 35 257 0.0 0.0 0.00 0.01 0.01 96 1026.5
20240613211205 35 257 0.0 0.0 0.00 0.01 0.01 96 1026.5
20240613210704 35 257 0.0 0.0 0.00 0.01 0.01 96 1026.5
20240613205704 35 257 0.0 1.7 0.00 0.01 0.01 95 1026.4
20240613205204 35 257 0.0 1.7 0.00 0.01 0.01 95 1026.4
20240613204704 35 257 0.0 1.7 0.00 0.01 0.01 95 1026.3
20240613204205 35 257 0.0 0.9 0.00 0.01 0.01 95 1026.2
20240613203705 35 257 0.0 0.9 0.00 0.01 0.01 95 1026.2
20240613203205 36 257 0.0 0.9 0.00 0.01 0.01 95 1026.1
20240613202204 36 257 0.0 0.0 0.00 0.01 0.01 96 1026.0
20240613201705 36 257 0.0 0.0 0.00 0.01 0.01 96 1026.1
20240613201204 36 257 0.0 0.0 0.00 0.01 0.01 95 1026.0
20240613200704 36 257 0.0 0.0 0.00 0.01 0.01 95 1026.1
20240613200204 35 257 0.0 0.0 0.00 0.01 0.01 95 1026.1
20240613195705 36 257 0.0 0.0 0.00 0.01 0.01 95 1026.0
20240613194704 36 257 0.0 0.9 0.00 0.01 0.01 95 1026.0
20240613194204 36 257 0.0 0.9 0.00 0.01 0.01 95 1026.0
20240613193704 35 257 0.0 0.0 0.00 0.01 0.01 95 1026.0
20240613193204 36 257 0.0 0.0 0.00 0.01 0.01 95 1025.9
20240613192704 36 257 0.0 1.7 0.00 0.01 0.01 95 1025.9
20240613191705 36 257 0.9 2.6 0.00 0.01 0.01 95 1026.0
20240613185205 38 257 0.0 1.7 0.00 0.01 0.01 95 1026.3
20240613184705 38 257 0.0 1.7 0.00 0.01 0.01 96 1026.2
20240613183704 37 257 0.0 2.6 0.00 0.01 0.01 96 1026.2
20240613183204 37 257 0.9 2.6 0.00 0.01 0.01 96 1026.2
20240613182204 37 257 0.9 2.6 0.00 0.01 0.01 96 1026.2
20240613181705 36 257 0.9 2.6 0.00 0.01 0.01 95 1026.1
20240613181204 36 257 0.0 0.9 0.00 0.01 0.01 95 1026.1
20240613180704 36 257 0.0 0.9 0.00 0.01 0.01 95 1026.0
20240613180204 36 257 0.0 0.9 0.00 0.01 0.01 95 1026.0
20240613175704 36 257 0.0 0.0 0.00 0.01 0.01 95 1026.2
20240613174204 36 257 0.0 0.0 0.01 0.01 0.01 95 1026.2
20240613173704 36 257 0.0 0.0 0.01 0.01 0.01 95 1026.2
20240613173204 36 257 0.0 0.0 0.01 0.01 0.01 95 1026.2
20240613172704 36 257 0.0 0.0 0.01 0.01 0.01 95 1026.3
20240613172205 36 257 0.0 0.0 0.01 0.01 0.01 95 1026.4
20240613171204 36 257 0.0 0.0 0.01 0.01 0.01 95 1026.7
20240613170704 36 257 0.0 0.0 0.01 0.01 0.01 95 1026.7
20240613165704 36 257 0.0 0.0 0.01 0.01 0.01 95 1027.2
20240613165204 36 257 0.0 0.0 0.00 0.00 0.00 95 1027.2
20240613164705 36 257 0.0 0.0 0.00 0.00 0.00 95 1027.2
20240613164204 36 257 0.0 0.0 0.00 0.00 0.00 95 1027.2
20240613163705 36 257 0.0 1.7 0.00 0.00 0.00 95 1027.1
20240613163204 36 257 0.0 1.7 0.00 0.00 0.00 95 1027.1
20240613162704 36 257 0.0 1.7 0.00 0.00 0.00 95 1027.0
20240613160704 36 257 0.0 0.0 0.00 0.00 0.00 95 1027.0
20240613160205 36 257 0.0 0.9 0.00 0.00 0.00 95 1027.0
20240613155705 36 257 0.0 0.9 0.00 0.00 0.00 95 1027.0
20240613155204 36 257 0.0 0.9 0.00 0.00 0.00 95 1027.0
20240613154204 36 257 0.0 1.7 0.00 0.00 0.00 94 1026.9
20240613153705 37 257 0.9 2.6 0.00 0.00 0.00 95 1026.7
20240613153205 37 257 0.0 2.6 0.00 0.00 0.00 95 1026.7
20240613152703 37 257 0.9 2.6 0.00 0.00 0.00 95 1026.6
20240613152204 36 257 0.9 2.6 0.00 0.00 0.00 95 1026.7
20240613151205 36 257 0.0 0.9 0.00 0.00 0.00 94 1026.8
20240613150704 36 257 0.0 0.9 0.00 0.00 0.00 94 1026.9
20240613150204 36 257 0.0 0.0 0.00 0.00 0.00 94 1026.9
20240613145704 36 257 0.0 0.0 0.00 0.00 0.00 94 1027.2
20240613145204 36 257 0.0 0.0 0.00 0.00 0.00 94 1027.1
20240613144705 36 257 0.0 0.0 0.00 0.00 0.00 94 1027.2
20240613144204 36 257 0.0 0.0 0.00 0.00 0.00 94 1027.3
20240613143705 36 257 0.0 0.0 0.00 0.00 0.00 94 1027.4
20240613142704 36 257 0.0 0.0 0.00 0.00 0.00 94 1027.8
20240613142204 36 257 0.0 0.0 0.00 0.00 0.00 94 1027.9
20240613141704 36 257 0.0 0.0 0.00 0.00 0.00 94 1027.9
20240613141205 36 257 0.0 0.0 0.00 0.00 0.00 94 1027.8
20240613140704 36 257 0.0 0.9 0.00 0.00 0.00 94 1027.7
20240613140204 36 257 0.0 0.9 0.00 0.00 0.00 94 1027.8
20240613135703 36 257 0.0 0.9 0.00 0.00 0.00 94 1027.9
20240613135204 36 257 0.0 0.0 0.00 0.00 0.00 94 1028.0
20240613134705 36 257 0.0 0.0 0.00 0.00 0.00 94 1028.0
20240613134204 36 257 0.0 0.0 0.00 0.00 0.00 94 1028.0
20240613133704 36 257 0.0 0.0 0.00 0.00 0.00 94 1028.1
20240613133204 36 257 0.0 1.7 0.00 0.00 0.00 94 1028.0
20240613132205 36 257 0.9 1.7 0.00 0.00 0.00 93 1028.0
20240613131704 36 257 0.9 1.7 0.00 0.00 0.00 93 1028.0
20240613131204 37 257 0.0 0.0 0.00 0.00 0.00 94 1028.0
20240613130705 37 257 0.0 0.0 0.00 0.00 0.00 93 1028.1
20240613130205 37 257 0.0 1.7 0.00 0.00 0.00 93 1028.0
20240613125704 37 257 0.0 1.7 0.00 0.00 0.00 93 1028.1
20240613125204 37 257 0.9 2.6 0.00 0.00 0.00 93 1028.2
20240613124704 37 257 0.0 2.6 0.00 0.00 0.00 93 1028.1
20240613124205 37 257 0.0 1.7 0.00 0.00 0.00 93 1028.1
20240613123704 37 257 0.0 0.9 0.00 0.00 0.00 93 1027.9
20240613123205 37 257 0.0 0.0 0.00 0.00 0.00 93 1027.8
20240613122703 37 257 0.0 0.9 0.00 0.00 0.00 92 1027.7